createdAt,value
2018-12-26T00:00:27.348Z,98.88
2018-12-26T00:02:54.459Z,98.88
2018-12-26T00:05:21.641Z,99.32
2018-12-26T00:07:49.426Z,98.77
2018-12-26T00:10:17.219Z,97.99
2018-12-26T00:12:45.363Z,98.34
2018-12-26T00:15:12.718Z,98.13
2018-12-26T00:17:40.100Z,97.95
2018-12-26T00:20:07.746Z,98.03
2018-12-26T00:22:36.118Z,98.60
2018-12-26T00:25:03.628Z,98.32
2018-12-26T00:27:31.642Z,97.51
2018-12-26T00:29:59.003Z,97.70
2018-12-26T00:32:26.349Z,97.71
2018-12-26T00:34:55.443Z,98.06
2018-12-26T00:37:23.103Z,97.34
2018-12-26T00:39:50.487Z,97.01
2018-12-26T00:42:18.523Z,97.39
2018-12-26T00:44:45.930Z,97.56
2018-12-26T00:47:13.650Z,97.76
2018-12-26T00:49:40.686Z,97.60
2018-12-26T00:52:08.358Z,97.65
2018-12-26T00:54:36.429Z,97.54
2018-12-26T00:57:04.090Z,98.32
2018-12-26T00:59:31.854Z,98.00
2018-12-26T01:01:59.826Z,97.62
2018-12-26T01:04:27.217Z,97.50
2018-12-26T01:06:54.548Z,97.86
2018-12-26T01:09:22.195Z,97.33
2018-12-26T01:11:49.860Z,96.85
2018-12-26T01:14:18.548Z,97.14
2018-12-26T01:16:46.208Z,96.90
2018-12-26T01:19:14.280Z,97.08
2018-12-26T01:21:42.965Z,96.40
2018-12-26T01:24:10.626Z,95.98
2018-12-26T01:26:37.649Z,96.85
2018-12-26T01:29:05.025Z,96.89
2018-12-26T01:31:33.401Z,95.81
2018-12-26T01:34:00.759Z,96.38
2018-12-26T01:36:28.114Z,96.21
2018-12-26T01:38:55.776Z,95.85
2018-12-26T01:41:23.161Z,95.60
2018-12-26T01:43:50.308Z,94.73
2018-12-26T01:46:17.654Z,95.32
2018-12-26T01:48:45.323Z,94.99
2018-12-26T01:51:14.490Z,95.35
2018-12-26T01:53:42.459Z,94.75
2018-12-26T01:56:10.129Z,94.63
2018-12-26T01:58:38.807Z,94.48
2018-12-26T02:01:05.847Z,94.01
2018-12-26T02:03:34.027Z,93.47
2018-12-26T02:06:01.043Z,93.05
2018-12-26T02:08:30.479Z,93.14
2018-12-26T02:10:57.829Z,92.33
2018-12-26T02:13:25.901Z,92.66
2018-12-26T02:15:53.871Z,92.43
2018-12-26T02:18:21.530Z,92.55
2018-12-26T02:20:49.611Z,93.41
2018-12-26T02:23:17.598Z,92.95
2018-12-26T02:25:44.934Z,92.99
2018-12-26T02:28:12.050Z,93.45
2018-12-26T02:30:39.099Z,93.43
2018-12-26T02:33:07.097Z,93.69
2018-12-26T02:35:34.862Z,93.62
2018-12-26T02:38:02.827Z,93.21
2018-12-26T02:40:30.222Z,93.56
2018-12-26T02:42:58.553Z,93.31
2018-12-26T02:45:25.916Z,93.35
2018-12-26T02:47:53.259Z,92.66
2018-12-26T02:50:20.625Z,92.35
2018-12-26T02:52:48.694Z,92.03
2018-12-26T02:55:16.048Z,91.57
2018-12-26T02:57:44.014Z,91.28
2018-12-26T03:00:11.312Z,90.95
2018-12-26T03:02:39.034Z,90.87
2018-12-26T03:05:07.442Z,91.46
2018-12-26T03:07:34.459Z,91.75
2018-12-26T03:10:01.656Z,91.87
2018-12-26T03:12:28.767Z,92.36
2018-12-26T03:14:56.417Z,91.87
2018-12-26T03:17:23.678Z,92.69
2018-12-26T03:19:50.685Z,92.68
2018-12-26T03:22:18.382Z,93.71
2018-12-26T03:24:45.739Z,93.46
2018-12-26T03:27:13.091Z,93.75
2018-12-26T03:29:40.341Z,94.29
2018-12-26T03:32:07.717Z,94.51
2018-12-26T03:34:35.054Z,93.30
2018-12-26T03:37:03.433Z,93.68
2018-12-26T03:39:30.431Z,92.70
2018-12-26T03:41:57.832Z,92.64
2018-12-26T03:44:25.240Z,92.17
2018-12-26T03:46:52.643Z,91.71
2018-12-26T03:49:24.090Z,92.28
2018-12-26T03:51:52.369Z,92.76
2018-12-26T03:54:19.843Z,92.20
2018-12-26T03:56:47.179Z,91.73
2018-12-26T03:59:14.537Z,92.23
2018-12-26T04:01:41.886Z,92.83
2018-12-26T04:04:09.505Z,92.33
2018-12-26T04:06:36.802Z,92.55
2018-12-26T04:09:06.580Z,92.21
2018-12-26T04:11:33.596Z,92.60
2018-12-26T04:14:00.916Z,92.99
2018-12-26T04:16:27.943Z,92.59
2018-12-26T04:18:54.969Z,92.61
2018-12-26T04:21:21.991Z,92.58
2018-12-26T04:23:49.306Z,92.08
2018-12-26T04:26:16.681Z,92.50
2018-12-26T04:28:43.790Z,92.54
2018-12-26T04:31:10.801Z,92.81
2018-12-26T04:33:37.828Z,91.89
2018-12-26T04:36:04.831Z,92.02
2018-12-26T04:38:32.416Z,91.78
2018-12-26T04:40:59.769Z,91.85
2018-12-26T04:43:26.792Z,92.34
2018-12-26T04:45:54.166Z,92.63
2018-12-26T04:48:21.190Z,92.60
2018-12-26T04:50:49.289Z,93.00
2018-12-26T04:53:16.379Z,92.97
2018-12-26T04:55:43.370Z,93.21
2018-12-26T04:58:11.039Z,93.32
2018-12-26T05:00:38.803Z,93.11
2018-12-26T05:03:07.082Z,92.56
2018-12-26T05:05:34.434Z,92.58
2018-12-26T05:08:01.630Z,93.59
2018-12-26T05:10:28.629Z,93.13
2018-12-26T05:12:55.990Z,92.45
2018-12-26T05:15:23.446Z,93.20
2018-12-26T05:17:50.442Z,92.73
2018-12-26T05:20:17.842Z,92.31
2018-12-26T05:22:45.511Z,91.81
2018-12-26T05:25:12.759Z,91.97
2018-12-26T05:27:39.763Z,92.50
2018-12-26T05:30:06.997Z,93.07
2018-12-26T05:32:34.922Z,93.49
2018-12-26T05:35:01.946Z,94.63
2018-12-26T05:37:29.526Z,94.38
2018-12-26T05:39:57.190Z,95.30
2018-12-26T05:42:24.954Z,95.42
2018-12-26T05:44:51.986Z,96.17
2018-12-26T05:47:19.253Z,96.74
2018-12-26T05:49:46.257Z,97.42
2018-12-26T05:52:13.554Z,97.47
2018-12-26T05:54:40.906Z,97.69
2018-12-26T05:57:09.798Z,97.28
2018-12-26T05:59:37.766Z,97.45
2018-12-26T06:02:04.766Z,98.14
2018-12-26T06:04:32.374Z,97.97
2018-12-26T06:07:00.049Z,97.78
2018-12-26T06:09:27.799Z,97.89
2018-12-26T06:11:55.697Z,99.37
2018-12-26T06:14:23.020Z,98.54
2018-12-26T06:16:50.682Z,98.84
2018-12-26T06:19:17.681Z,98.61
2018-12-26T06:21:45.285Z,98.50
2018-12-26T06:24:12.537Z,99.83
2018-12-26T06:26:39.634Z,100.00
2018-12-26T06:29:07.350Z,100.00
2018-12-26T06:31:35.010Z,100.00
2018-12-26T06:34:02.366Z,100.00
2018-12-26T06:36:30.026Z,100.00
2018-12-26T06:38:57.382Z,99.61
2018-12-26T06:41:24.734Z,99.13
2018-12-26T06:43:51.769Z,99.11
2018-12-26T06:46:19.037Z,99.08
2018-12-26T06:48:46.390Z,98.26
2018-12-26T06:51:15.074Z,99.35
2018-12-26T06:53:42.089Z,99.49
2018-12-26T06:56:09.373Z,99.53
2018-12-26T06:58:36.730Z,99.64
2018-12-26T07:01:03.982Z,99.24
2018-12-26T07:03:31.659Z,99.41
2018-12-26T07:05:58.662Z,98.12
2018-12-26T07:08:25.942Z,97.37
2018-12-26T07:10:53.404Z,97.10
2018-12-26T07:13:20.760Z,97.13
2018-12-26T07:15:47.757Z,96.71
2018-12-26T07:18:15.155Z,96.69
2018-12-26T07:20:42.405Z,97.01
2018-12-26T07:23:09.410Z,97.56
2018-12-26T07:25:36.706Z,96.68
2018-12-26T07:28:08.906Z,96.30
2018-12-26T07:30:33.671Z,96.77
2018-12-26T07:33:01.374Z,96.76
2018-12-26T07:35:28.686Z,96.79
2018-12-26T07:37:55.949Z,96.25
2018-12-26T07:40:23.290Z,96.02
2018-12-26T07:42:50.647Z,96.56
2018-12-26T07:45:19.639Z,95.72
2018-12-26T07:47:46.653Z,95.77
2018-12-26T07:50:13.940Z,95.14
2018-12-26T07:52:40.970Z,95.15
2018-12-26T07:55:08.542Z,94.91
2018-12-26T07:57:36.206Z,96.01
2018-12-26T08:00:03.969Z,95.25
2018-12-26T08:02:31.631Z,95.87
2018-12-26T08:04:58.985Z,96.15
2018-12-26T08:07:25.983Z,96.36
2018-12-26T08:09:53.591Z,96.35
2018-12-26T08:12:20.591Z,96.45
2018-12-26T08:14:49.224Z,96.21
2018-12-26T08:17:16.680Z,96.63
2018-12-26T08:19:44.037Z,96.66
2018-12-26T08:22:11.695Z,96.17
2018-12-26T08:24:38.955Z,96.46
2018-12-26T08:27:05.962Z,98.16
2018-12-26T08:29:33.553Z,98.63
2018-12-26T08:32:01.526Z,98.13
2018-12-26T08:34:28.874Z,97.44
2018-12-26T08:36:56.229Z,97.90
2018-12-26T08:39:23.894Z,98.35
2018-12-26T08:41:51.555Z,97.87
2018-12-26T08:44:18.909Z,97.72
2018-12-26T08:46:47.298Z,97.93
2018-12-26T08:49:14.643Z,98.36
2018-12-26T08:51:41.998Z,98.21
2018-12-26T08:54:09.355Z,97.58
2018-12-26T08:56:36.706Z,97.66
2018-12-26T08:59:04.369Z,98.84
2018-12-26T09:01:31.406Z,98.91
2018-12-26T09:03:59.382Z,99.05
2018-12-26T09:06:26.737Z,100.00
2018-12-26T09:08:53.734Z,99.79
2018-12-26T09:11:21.039Z,99.82
2018-12-26T09:13:48.912Z,99.50
2018-12-26T09:16:15.961Z,99.48
2018-12-26T09:18:42.958Z,99.75
2018-12-26T09:21:10.249Z,98.80
2018-12-26T09:23:37.247Z,97.54
2018-12-26T09:26:06.919Z,96.86
2018-12-26T09:28:43.623Z,96.90
2018-12-26T09:31:04.378Z,96.34
2018-12-26T09:33:31.377Z,96.76
2018-12-26T09:35:58.678Z,96.04
2018-12-26T09:38:26.031Z,96.31
2018-12-26T09:40:53.385Z,95.28
2018-12-26T09:43:20.382Z,94.51
2018-12-26T09:45:47.938Z,95.20
2018-12-26T09:48:14.960Z,94.07
2018-12-26T09:50:42.295Z,93.88
2018-12-26T09:53:09.646Z,94.00
2018-12-26T09:55:37.002Z,93.98
2018-12-26T09:58:04.353Z,92.51
2018-12-26T10:00:31.385Z,91.67
2018-12-26T10:02:58.766Z,91.67
2018-12-26T10:05:26.116Z,92.07
2018-12-26T10:07:53.770Z,92.79
2018-12-26T10:10:21.448Z,91.92
2018-12-26T10:12:49.093Z,91.92
2018-12-26T10:15:17.063Z,91.73
2018-12-26T10:17:44.398Z,90.52
2018-12-26T10:20:11.716Z,91.76
2018-12-26T10:22:39.331Z,92.22
2018-12-26T10:25:07.022Z,93.84
2018-12-26T10:27:34.403Z,92.71
2018-12-26T10:30:01.702Z,92.98
2018-12-26T10:32:29.191Z,92.89
2018-12-26T10:34:56.511Z,92.70
2018-12-26T10:37:23.867Z,91.72
2018-12-26T10:39:52.243Z,92.81
2018-12-26T10:42:19.597Z,92.70
2018-12-26T10:44:47.259Z,94.10
2018-12-26T10:47:14.922Z,94.56
2018-12-26T10:49:41.960Z,94.90
2018-12-26T10:52:09.635Z,95.74
2018-12-26T10:54:37.295Z,95.83
2018-12-26T10:57:04.646Z,95.62
2018-12-26T10:59:32.002Z,96.35
2018-12-26T11:01:59.688Z,96.75
2018-12-26T11:04:27.327Z,96.43
2018-12-26T11:06:54.986Z,96.52
2018-12-26T11:09:22.029Z,96.85
2018-12-26T11:11:49.287Z,96.97
2018-12-26T11:14:16.425Z,97.17
2018-12-26T11:16:44.404Z,96.39
2018-12-26T11:19:12.167Z,97.91
2018-12-26T11:21:39.628Z,97.87
2018-12-26T11:24:06.978Z,98.68
2018-12-26T11:26:34.643Z,98.65
2018-12-26T11:29:01.683Z,100.00
2018-12-26T11:31:29.362Z,100.00
2018-12-26T11:33:56.833Z,99.98
2018-12-26T11:36:23.964Z,99.85
2018-12-26T11:38:51.315Z,99.51
2018-12-26T11:41:18.772Z,99.95
2018-12-26T11:43:45.796Z,99.16
2018-12-26T11:46:12.843Z,99.66
2018-12-26T11:48:40.117Z,99.45
2018-12-26T11:51:07.777Z,99.35
2018-12-26T11:53:35.995Z,99.25
2018-12-26T11:56:04.022Z,98.60
2018-12-26T11:58:31.297Z,97.62
2018-12-26T12:00:58.633Z,97.59
2018-12-26T12:03:26.087Z,97.04
2018-12-26T12:05:53.445Z,97.45
2018-12-26T12:08:21.441Z,97.77
2018-12-26T12:10:50.174Z,97.67
2018-12-26T12:13:17.391Z,97.43
2018-12-26T12:15:44.699Z,98.01
2018-12-26T12:18:12.452Z,98.81
2018-12-26T12:20:39.461Z,98.87
2018-12-26T12:23:06.867Z,98.46
2018-12-26T12:25:34.425Z,98.59
2018-12-26T12:28:01.780Z,97.57
2018-12-26T12:30:28.827Z,97.08
2018-12-26T12:32:56.079Z,95.74
2018-12-26T12:35:23.347Z,95.88
2018-12-26T12:37:50.689Z,95.83
2018-12-26T12:40:18.039Z,96.15
2018-12-26T12:42:45.763Z,96.40
2018-12-26T12:45:12.779Z,96.61
2018-12-26T12:47:40.128Z,96.86
2018-12-26T12:50:07.181Z,97.41
2018-12-26T12:52:34.811Z,97.91
2018-12-26T12:55:01.843Z,97.97
2018-12-26T12:57:29.110Z,97.28
2018-12-26T12:59:57.042Z,96.73
2018-12-26T13:02:24.331Z,97.26
2018-12-26T13:04:52.096Z,96.55
2018-12-26T13:07:19.471Z,97.36
2018-12-26T13:09:46.466Z,97.74
2018-12-26T13:12:14.157Z,98.29
2018-12-26T13:14:42.234Z,97.95
2018-12-26T13:17:09.586Z,98.71
2018-12-26T13:19:37.358Z,99.48
2018-12-26T13:22:04.378Z,98.52
2018-12-26T13:24:32.250Z,98.82
2018-12-26T13:26:59.922Z,100.00
2018-12-26T13:29:27.479Z,100.00
2018-12-26T13:31:54.506Z,99.44
2018-12-26T13:34:21.892Z,99.13
2018-12-26T13:36:49.078Z,100.00
2018-12-26T13:39:16.387Z,100.00
2018-12-26T13:41:43.742Z,99.62
2018-12-26T13:44:12.145Z,100.00
2018-12-26T13:46:39.147Z,99.37
2018-12-26T13:49:06.153Z,100.00
2018-12-26T13:51:33.471Z,100.00
2018-12-26T13:54:01.220Z,100.00
2018-12-26T13:56:29.715Z,100.00
2018-12-26T13:58:57.375Z,100.00
2018-12-26T14:01:25.430Z,100.00
2018-12-26T14:03:53.061Z,100.00
2018-12-26T14:06:20.666Z,100.00
2018-12-26T14:08:48.023Z,100.00
2018-12-26T14:11:16.136Z,100.00
2018-12-26T14:13:44.330Z,100.00
2018-12-26T14:16:11.927Z,100.00
2018-12-26T14:18:38.935Z,100.00
2018-12-26T14:21:06.430Z,100.00
2018-12-26T14:23:33.439Z,100.00
2018-12-26T14:26:01.246Z,100.00
2018-12-26T14:28:29.013Z,100.00
2018-12-26T14:30:56.348Z,100.00
2018-12-26T14:33:24.021Z,100.00
2018-12-26T14:35:56.661Z,100.00
2018-12-26T14:38:23.698Z,100.00
2018-12-26T14:40:51.307Z,100.00
2018-12-26T14:43:18.991Z,100.00
2018-12-26T14:45:46.626Z,100.00
2018-12-26T14:48:14.294Z,100.00
2018-12-26T14:50:41.852Z,100.00
2018-12-26T14:53:09.206Z,100.00
2018-12-26T14:55:36.867Z,100.00
2018-12-26T14:58:04.221Z,100.00
2018-12-26T15:00:32.399Z,100.00
2018-12-26T15:02:59.798Z,100.00
2018-12-26T15:05:27.106Z,100.00
2018-12-26T15:07:54.573Z,100.00
2018-12-26T15:10:22.421Z,100.00
2018-12-26T15:12:49.797Z,100.00
2018-12-26T15:15:17.448Z,100.00
2018-12-26T15:17:44.830Z,100.00
2018-12-26T15:20:12.151Z,100.00
2018-12-26T15:22:39.158Z,100.00
2018-12-26T15:25:06.555Z,99.14
2018-12-26T15:27:34.218Z,98.95
2018-12-26T15:30:01.237Z,99.13
2018-12-26T15:32:28.726Z,98.98
2018-12-26T15:34:56.075Z,98.81
2018-12-26T15:37:23.107Z,99.37
2018-12-26T15:39:51.213Z,99.03
2018-12-26T15:42:19.063Z,98.25
2018-12-26T15:44:46.416Z,98.25
2018-12-26T15:47:13.773Z,98.01
2018-12-26T15:49:41.537Z,98.11
2018-12-26T15:52:10.833Z,97.44
2018-12-26T15:54:38.603Z,97.11
2018-12-26T15:57:06.262Z,97.39
2018-12-26T15:59:34.636Z,96.63
2018-12-26T16:02:02.399Z,96.59
2018-12-26T16:04:30.064Z,96.59
2018-12-26T16:06:58.342Z,95.82
2018-12-26T16:09:25.364Z,95.82
2018-12-26T16:11:53.357Z,95.82
2018-12-26T16:14:20.711Z,95.82
2018-12-26T16:16:48.061Z,94.86
2018-12-26T16:19:16.443Z,94.86
2018-12-26T16:21:43.708Z,95.12
2018-12-26T16:24:10.731Z,95.12
2018-12-26T16:26:38.714Z,95.72
2018-12-26T16:29:05.988Z,95.72
2018-12-26T16:31:32.994Z,96.11
2018-12-26T16:34:00.366Z,95.17
2018-12-26T16:36:27.722Z,94.58
2018-12-26T16:38:55.379Z,94.58
2018-12-26T16:41:22.735Z,95.71
2018-12-26T16:43:50.080Z,95.51
2018-12-26T16:46:17.445Z,96.09
2018-12-26T16:48:47.546Z,95.21
2018-12-26T16:51:15.229Z,95.21
2018-12-26T16:53:42.679Z,95.80
2018-12-26T16:56:10.663Z,95.70
2018-12-26T16:58:37.703Z,95.70
2018-12-26T17:01:05.361Z,96.04
2018-12-26T17:03:32.363Z,95.96
2018-12-26T17:05:59.658Z,95.61
2018-12-26T17:08:26.692Z,95.19
2018-12-26T17:10:54.158Z,95.26
2018-12-26T17:13:22.847Z,95.21
2018-12-26T17:15:50.199Z,95.21
2018-12-26T17:18:17.451Z,95.22
2018-12-26T17:20:45.105Z,96.07
2018-12-26T17:23:12.471Z,95.92
2018-12-26T17:25:39.823Z,96.96
2018-12-26T17:28:07.487Z,97.19
2018-12-26T17:30:34.554Z,97.50
2018-12-26T17:33:02.918Z,98.24
2018-12-26T17:35:30.569Z,97.82
2018-12-26T17:37:58.033Z,97.77
2018-12-26T17:40:25.397Z,97.65
2018-12-26T17:42:53.150Z,98.34
2018-12-26T17:45:22.445Z,98.26
2018-12-26T17:47:50.106Z,99.02
2018-12-26T17:50:39.995Z,98.88
2018-12-26T17:53:09.362Z,99.54
2018-12-26T17:56:03.743Z,100.00
2018-12-26T17:58:34.585Z,100.00
2018-12-26T18:01:20.230Z,99.83
2018-12-26T18:03:47.575Z,100.00
2018-12-26T18:06:14.902Z,100.00
2018-12-26T18:08:42.362Z,100.00
2018-12-26T18:11:09.727Z,100.00
2018-12-26T18:13:37.615Z,100.00
2018-12-26T18:16:05.042Z,100.00
2018-12-26T18:18:32.703Z,99.95
2018-12-26T18:21:01.534Z,99.95
2018-12-26T18:23:28.849Z,99.77
2018-12-26T18:25:56.406Z,99.77
2018-12-26T18:28:23.694Z,99.28
2018-12-26T18:30:51.023Z,100.00
2018-12-26T18:33:18.674Z,99.51
2018-12-26T18:35:46.335Z,99.11
2018-12-26T18:38:13.998Z,99.11
2018-12-26T18:40:41.347Z,98.85
2018-12-26T18:43:09.015Z,98.32
2018-12-26T18:45:36.042Z,97.44
2018-12-26T18:48:03.315Z,98.17
2018-12-26T18:50:30.626Z,97.84
2018-12-26T18:52:58.010Z,97.80
2018-12-26T18:55:25.684Z,97.86
2018-12-26T18:57:53.654Z,96.86
2018-12-26T19:00:21.318Z,96.86
2018-12-26T19:02:48.974Z,96.91
2018-12-26T19:05:16.150Z,97.61
2018-12-26T19:07:43.490Z,97.30
2018-12-26T19:10:10.598Z,98.03
2018-12-26T19:12:38.497Z,97.73
2018-12-26T19:15:07.167Z,98.35
2018-12-26T19:17:34.637Z,97.67
2018-12-26T19:20:02.093Z,97.63
2018-12-26T19:22:29.333Z,97.59
2018-12-26T19:24:56.794Z,97.94
2018-12-26T19:27:24.670Z,97.37
2018-12-26T19:29:59.290Z,98.08
2018-12-26T19:32:21.527Z,98.22
2018-12-26T19:34:49.498Z,98.28
2018-12-26T19:37:16.498Z,98.11
2018-12-26T19:39:44.003Z,98.06
2018-12-26T19:42:11.663Z,97.78
2018-12-26T19:44:39.439Z,98.24
2018-12-26T19:47:06.883Z,96.91
2018-12-26T19:49:34.261Z,97.62
2018-12-26T19:52:01.900Z,97.09
2018-12-26T19:54:29.667Z,96.45
2018-12-26T19:56:57.633Z,96.83
2018-12-26T19:59:25.087Z,96.11
2018-12-26T20:01:52.859Z,96.04
2018-12-26T20:04:20.210Z,96.48
2018-12-26T20:06:47.977Z,96.14
2018-12-26T20:09:15.734Z,95.95
2018-12-26T20:11:43.098Z,96.93
2018-12-26T20:14:10.436Z,96.59
2018-12-26T20:16:37.804Z,96.49
2018-12-26T20:19:05.562Z,96.88
2018-12-26T20:21:32.945Z,97.20
2018-12-26T20:24:00.579Z,97.71
2018-12-26T20:26:27.600Z,97.91
2018-12-26T20:28:55.287Z,98.09
2018-12-26T20:31:22.846Z,97.69
2018-12-26T20:33:50.358Z,97.63
2018-12-26T20:36:17.678Z,97.25
2018-12-26T20:38:45.318Z,97.88
2018-12-26T20:41:12.354Z,97.66
2018-12-26T20:43:39.349Z,98.04
2018-12-26T20:46:06.669Z,99.15
2018-12-26T20:48:33.719Z,98.33
2018-12-26T20:51:01.154Z,98.75
2018-12-26T20:53:29.035Z,98.37
2018-12-26T20:55:56.390Z,98.77
2018-12-26T20:58:23.390Z,98.35
2018-12-26T21:00:50.898Z,98.42
2018-12-26T21:03:19.018Z,97.84
2018-12-26T21:05:46.637Z,98.16
2018-12-26T21:08:16.030Z,98.00
2018-12-26T21:10:43.389Z,97.94
2018-12-26T21:13:11.046Z,97.74
2018-12-26T21:15:38.051Z,97.52
2018-12-26T21:18:05.658Z,97.83
2018-12-26T21:20:33.041Z,97.84
2018-12-26T21:23:00.060Z,97.10
2018-12-26T21:25:27.399Z,97.51
2018-12-26T21:27:55.127Z,97.36
2018-12-26T21:30:22.423Z,96.91
2018-12-26T21:32:49.776Z,95.92
2018-12-26T21:35:16.801Z,97.42
2018-12-26T21:37:44.369Z,96.23
2018-12-26T21:40:11.378Z,96.72
2018-12-26T21:42:39.728Z,96.04
2018-12-26T21:45:09.354Z,96.72
2018-12-26T21:47:36.674Z,96.38
2018-12-26T21:50:04.740Z,96.12
2018-12-26T21:52:32.207Z,96.11
2018-12-26T21:54:59.861Z,96.14
2018-12-26T21:57:26.874Z,96.10
2018-12-26T21:59:55.079Z,96.27
2018-12-26T22:02:23.166Z,96.44
2018-12-26T22:04:50.962Z,96.39
2018-12-26T22:07:18.266Z,95.93
2018-12-26T22:09:45.624Z,96.45
2018-12-26T22:12:13.287Z,96.29
2018-12-26T22:14:40.683Z,96.06
2018-12-26T22:17:09.290Z,96.42
2018-12-26T22:19:36.328Z,97.01
2018-12-26T22:22:04.337Z,96.27
2018-12-26T22:24:31.694Z,96.53
2018-12-26T22:26:59.766Z,96.05
2018-12-26T22:29:27.634Z,97.11
2018-12-26T22:31:55.394Z,97.41
2018-12-26T22:34:23.065Z,97.55
2018-12-26T22:36:51.437Z,97.44
2018-12-26T22:39:19.063Z,97.77
2018-12-26T22:41:46.451Z,98.08
2018-12-26T22:44:15.449Z,98.45
2018-12-26T22:46:44.572Z,98.55
2018-12-26T22:49:12.234Z,98.70
2018-12-26T22:51:41.993Z,97.69
2018-12-26T22:54:09.670Z,98.83
2018-12-26T22:56:37.106Z,99.41
2018-12-26T22:59:04.814Z,99.13
2018-12-26T23:01:32.561Z,99.31
2018-12-26T23:03:59.750Z,100.00
2018-12-26T23:06:27.362Z,100.00
2018-12-26T23:08:54.858Z,100.00
2018-12-26T23:11:22.592Z,99.31
2018-12-26T23:13:50.482Z,99.56
2018-12-26T23:16:17.818Z,100.00
2018-12-26T23:18:45.267Z,100.00
2018-12-26T23:21:13.295Z,100.00
2018-12-26T23:23:41.102Z,100.00
2018-12-26T23:26:08.458Z,100.00
2018-12-26T23:28:35.461Z,100.00
2018-12-26T23:31:02.762Z,100.00
2018-12-26T23:33:30.828Z,100.00
2018-12-26T23:35:57.825Z,100.00
2018-12-26T23:38:25.334Z,100.00
2018-12-26T23:40:52.354Z,100.00
2018-12-26T23:43:19.944Z,100.00
2018-12-26T23:45:47.095Z,100.00
2018-12-26T23:48:14.768Z,100.00
2018-12-26T23:50:41.919Z,100.00
2018-12-26T23:53:11.403Z,100.00
2018-12-26T23:55:39.041Z,100.00
2018-12-26T23:58:06.092Z,100.00
